sensor_id;sensor_type;location;lat;lon;timestamp;P1;durP1;ratioP1;P2;durP2;ratioP2
84231;SDS011;74368;48.022;13.830;2024-02-23T00:00:53;15.77;;;8.95;;
84231;SDS011;74368;48.022;13.830;2024-02-23T00:03:19;16.20;;;8.82;;
84231;SDS011;74368;48.022;13.830;2024-02-23T00:05:44;17.13;;;9.02;;
84231;SDS011;74368;48.022;13.830;2024-02-23T00:08:09;17.13;;;9.20;;
84231;SDS011;74368;48.022;13.830;2024-02-23T00:10:35;17.33;;;8.85;;
84231;SDS011;74368;48.022;13.830;2024-02-23T00:13:00;16.42;;;8.88;;
84231;SDS011;74368;48.022;13.830;2024-02-23T00:15:26;17.50;;;8.98;;
84231;SDS011;74368;48.022;13.830;2024-02-23T00:17:51;15.82;;;9.73;;
84231;SDS011;74368;48.022;13.830;2024-02-23T00:20:16;12.93;;;8.25;;
84231;SDS011;74368;48.022;13.830;2024-02-23T00:22:41;16.90;;;9.90;;
84231;SDS011;74368;48.022;13.830;2024-02-23T00:25:07;17.95;;;8.88;;
84231;SDS011;74368;48.022;13.830;2024-02-23T00:27:32;14.15;;;8.43;;
84231;SDS011;74368;48.022;13.830;2024-02-23T00:29:58;15.20;;;9.02;;
84231;SDS011;74368;48.022;13.830;2024-02-23T00:32:23;16.30;;;8.30;;
84231;SDS011;74368;48.022;13.830;2024-02-23T00:34:48;19.95;;;9.48;;
84231;SDS011;74368;48.022;13.830;2024-02-23T00:37:14;14.90;;;9.18;;
84231;SDS011;74368;48.022;13.830;2024-02-23T00:39:40;18.17;;;10.02;;
84231;SDS011;74368;48.022;13.830;2024-02-23T00:42:05;17.40;;;9.50;;
84231;SDS011;74368;48.022;13.830;2024-02-23T00:44:31;15.75;;;9.55;;
84231;SDS011;74368;48.022;13.830;2024-02-23T00:46:56;17.92;;;9.95;;
84231;SDS011;74368;48.022;13.830;2024-02-23T00:49:23;14.70;;;9.48;;
84231;SDS011;74368;48.022;13.830;2024-02-23T00:51:48;17.40;;;9.63;;
84231;SDS011;74368;48.022;13.830;2024-02-23T00:54:14;18.08;;;9.60;;
84231;SDS011;74368;48.022;13.830;2024-02-23T00:56:39;16.13;;;8.50;;
84231;SDS011;74368;48.022;13.830;2024-02-23T00:59:05;17.00;;;9.13;;
84231;SDS011;74368;48.022;13.830;2024-02-23T01:01:30;14.35;;;8.95;;
84231;SDS011;74368;48.022;13.830;2024-02-23T01:03:57;15.55;;;9.43;;
84231;SDS011;74368;48.022;13.830;2024-02-23T01:06:22;14.10;;;9.48;;
84231;SDS011;74368;48.022;13.830;2024-02-23T01:08:48;17.70;;;8.90;;
84231;SDS011;74368;48.022;13.830;2024-02-23T01:11:14;16.35;;;10.30;;
84231;SDS011;74368;48.022;13.830;2024-02-23T01:13:39;12.90;;;8.95;;
84231;SDS011;74368;48.022;13.830;2024-02-23T01:16:04;16.27;;;10.05;;
84231;SDS011;74368;48.022;13.830;2024-02-23T01:18:30;14.75;;;9.27;;
84231;SDS011;74368;48.022;13.830;2024-02-23T01:20:56;17.05;;;9.05;;
84231;SDS011;74368;48.022;13.830;2024-02-23T01:23:22;13.10;;;9.25;;
84231;SDS011;74368;48.022;13.830;2024-02-23T01:25:47;15.57;;;9.57;;
84231;SDS011;74368;48.022;13.830;2024-02-23T01:28:12;16.27;;;10.10;;
84231;SDS011;74368;48.022;13.830;2024-02-23T01:30:38;17.85;;;11.20;;
84231;SDS011;74368;48.022;13.830;2024-02-23T01:33:03;17.35;;;10.80;;
84231;SDS011;74368;48.022;13.830;2024-02-23T01:35:28;19.25;;;11.65;;
84231;SDS011;74368;48.022;13.830;2024-02-23T01:37:55;19.83;;;11.23;;
84231;SDS011;74368;48.022;13.830;2024-02-23T01:40:20;7.70;;;4.85;;
84231;SDS011;74368;48.022;13.830;2024-02-23T01:42:45;8.40;;;5.38;;
84231;SDS011;74368;48.022;13.830;2024-02-23T01:45:10;8.13;;;5.63;;
84231;SDS011;74368;48.022;13.830;2024-02-23T01:47:36;10.07;;;5.05;;
84231;SDS011;74368;48.022;13.830;2024-02-23T01:50:01;6.28;;;4.03;;
84231;SDS011;74368;48.022;13.830;2024-02-23T01:52:28;7.68;;;4.10;;
84231;SDS011;74368;48.022;13.830;2024-02-23T01:54:53;6.13;;;3.35;;
84231;SDS011;74368;48.022;13.830;2024-02-23T01:57:20;5.45;;;3.65;;
84231;SDS011;74368;48.022;13.830;2024-02-23T01:59:46;5.13;;;3.40;;
84231;SDS011;74368;48.022;13.830;2024-02-23T02:02:12;5.78;;;3.40;;
84231;SDS011;74368;48.022;13.830;2024-02-23T02:04:37;6.97;;;3.85;;
84231;SDS011;74368;48.022;13.830;2024-02-23T02:07:03;6.57;;;3.53;;
84231;SDS011;74368;48.022;13.830;2024-02-23T02:09:29;5.20;;;3.60;;
84231;SDS011;74368;48.022;13.830;2024-02-23T02:11:54;5.97;;;4.10;;
84231;SDS011;74368;48.022;13.830;2024-02-23T02:14:20;6.65;;;3.60;;
84231;SDS011;74368;48.022;13.830;2024-02-23T02:16:45;5.85;;;3.67;;
84231;SDS011;74368;48.022;13.830;2024-02-23T02:19:11;4.32;;;2.92;;
84231;SDS011;74368;48.022;13.830;2024-02-23T02:21:37;4.65;;;2.80;;
84231;SDS011;74368;48.022;13.830;2024-02-23T02:24:02;3.70;;;2.63;;
84231;SDS011;74368;48.022;13.830;2024-02-23T02:26:28;2.65;;;1.90;;
84231;SDS011;74368;48.022;13.830;2024-02-23T02:28:54;3.50;;;1.63;;
84231;SDS011;74368;48.022;13.830;2024-02-23T02:31:21;2.03;;;1.50;;
84231;SDS011;74368;48.022;13.830;2024-02-23T02:33:46;2.78;;;1.73;;
84231;SDS011;74368;48.022;13.830;2024-02-23T02:36:12;3.83;;;1.60;;
84231;SDS011;74368;48.022;13.830;2024-02-23T02:38:37;1.73;;;1.30;;
84231;SDS011;74368;48.022;13.830;2024-02-23T02:41:03;1.40;;;1.30;;
84231;SDS011;74368;48.022;13.830;2024-02-23T02:43:28;1.70;;;1.48;;
84231;SDS011;74368;48.022;13.830;2024-02-23T02:45:53;1.88;;;1.00;;
84231;SDS011;74368;48.022;13.830;2024-02-23T02:48:19;1.35;;;0.85;;
84231;SDS011;74368;48.022;13.830;2024-02-23T02:50:44;1.55;;;1.00;;
84231;SDS011;74368;48.022;13.830;2024-02-23T02:53:10;1.17;;;1.08;;
84231;SDS011;74368;48.022;13.830;2024-02-23T02:55:36;1.25;;;1.05;;
84231;SDS011;74368;48.022;13.830;2024-02-23T02:58:01;1.02;;;0.77;;
84231;SDS011;74368;48.022;13.830;2024-02-23T03:00:27;1.27;;;1.00;;
84231;SDS011;74368;48.022;13.830;2024-02-23T03:02:52;1.60;;;1.17;;
84231;SDS011;74368;48.022;13.830;2024-02-23T03:05:18;0.82;;;0.82;;
84231;SDS011;74368;48.022;13.830;2024-02-23T03:07:43;0.73;;;0.73;;
84231;SDS011;74368;48.022;13.830;2024-02-23T03:10:08;0.77;;;0.65;;
84231;SDS011;74368;48.022;13.830;2024-02-23T03:12:34;0.47;;;0.47;;
84231;SDS011;74368;48.022;13.830;2024-02-23T03:14:59;1.00;;;0.60;;
84231;SDS011;74368;48.022;13.830;2024-02-23T03:17:24;0.63;;;0.63;;
84231;SDS011;74368;48.022;13.830;2024-02-23T03:19:50;0.52;;;0.52;;
84231;SDS011;74368;48.022;13.830;2024-02-23T03:22:15;1.55;;;0.40;;
84231;SDS011;74368;48.022;13.830;2024-02-23T03:24:40;1.08;;;0.57;;
84231;SDS011;74368;48.022;13.830;2024-02-23T03:27:06;0.50;;;0.50;;
84231;SDS011;74368;48.022;13.830;2024-02-23T03:29:31;0.60;;;0.60;;
84231;SDS011;74368;48.022;13.830;2024-02-23T03:31:57;0.80;;;0.80;;
84231;SDS011;74368;48.022;13.830;2024-02-23T03:34:22;2.17;;;1.05;;
84231;SDS011;74368;48.022;13.830;2024-02-23T03:36:47;0.73;;;0.73;;
84231;SDS011;74368;48.022;13.830;2024-02-23T03:39:13;0.95;;;0.95;;
84231;SDS011;74368;48.022;13.830;2024-02-23T03:41:38;1.30;;;1.10;;
84231;SDS011;74368;48.022;13.830;2024-02-23T03:44:03;1.25;;;1.13;;
84231;SDS011;74368;48.022;13.830;2024-02-23T03:46:29;1.88;;;1.38;;
84231;SDS011;74368;48.022;13.830;2024-02-23T03:48:54;1.48;;;0.95;;
84231;SDS011;74368;48.022;13.830;2024-02-23T03:51:19;0.40;;;0.40;;
84231;SDS011;74368;48.022;13.830;2024-02-23T03:53:45;0.30;;;0.30;;
84231;SDS011;74368;48.022;13.830;2024-02-23T03:56:10;0.30;;;0.28;;
84231;SDS011;74368;48.022;13.830;2024-02-23T03:58:35;0.22;;;0.22;;
84231;SDS011;74368;48.022;13.830;2024-02-23T04:01:00;0.80;;;0.80;;
84231;SDS011;74368;48.022;13.830;2024-02-23T04:03:26;1.17;;;0.82;;
84231;SDS011;74368;48.022;13.830;2024-02-23T04:05:51;0.38;;;0.30;;
84231;SDS011;74368;48.022;13.830;2024-02-23T04:08:16;0.80;;;0.70;;
84231;SDS011;74368;48.022;13.830;2024-02-23T04:10:42;0.40;;;0.40;;
84231;SDS011;74368;48.022;13.830;2024-02-23T04:13:07;0.40;;;0.40;;
84231;SDS011;74368;48.022;13.830;2024-02-23T04:15:32;0.60;;;0.52;;
84231;SDS011;74368;48.022;13.830;2024-02-23T04:17:58;0.52;;;0.52;;
84231;SDS011;74368;48.022;13.830;2024-02-23T04:20:23;0.38;;;0.38;;
84231;SDS011;74368;48.022;13.830;2024-02-23T04:22:48;0.40;;;0.40;;
84231;SDS011;74368;48.022;13.830;2024-02-23T04:25:14;1.35;;;0.40;;
84231;SDS011;74368;48.022;13.830;2024-02-23T04:27:39;0.65;;;0.65;;
84231;SDS011;74368;48.022;13.830;2024-02-23T04:30:04;0.70;;;0.60;;
84231;SDS011;74368;48.022;13.830;2024-02-23T04:32:31;0.60;;;0.60;;
84231;SDS011;74368;48.022;13.830;2024-02-23T04:34:56;0.43;;;0.43;;
84231;SDS011;74368;48.022;13.830;2024-02-23T04:37:21;0.70;;;0.70;;
84231;SDS011;74368;48.022;13.830;2024-02-23T04:39:46;1.17;;;0.60;;
84231;SDS011;74368;48.022;13.830;2024-02-23T04:42:12;0.60;;;0.60;;
84231;SDS011;74368;48.022;13.830;2024-02-23T04:44:37;0.77;;;0.70;;
84231;SDS011;74368;48.022;13.830;2024-02-23T04:47:02;0.30;;;0.30;;
84231;SDS011;74368;48.022;13.830;2024-02-23T04:49:28;0.50;;;0.50;;
84231;SDS011;74368;48.022;13.830;2024-02-23T04:51:53;0.40;;;0.40;;
84231;SDS011;74368;48.022;13.830;2024-02-23T04:54:19;0.20;;;0.20;;
84231;SDS011;74368;48.022;13.830;2024-02-23T04:56:45;0.30;;;0.30;;
84231;SDS011;74368;48.022;13.830;2024-02-23T04:59:10;0.50;;;0.50;;
84231;SDS011;74368;48.022;13.830;2024-02-23T05:01:36;0.57;;;0.40;;
84231;SDS011;74368;48.022;13.830;2024-02-23T05:04:02;1.45;;;1.27;;
84231;SDS011;74368;48.022;13.830;2024-02-23T05:06:28;0.50;;;0.50;;
84231;SDS011;74368;48.022;13.830;2024-02-23T05:08:54;0.30;;;0.30;;
84231;SDS011;74368;48.022;13.830;2024-02-23T05:11:19;0.38;;;0.38;;
84231;SDS011;74368;48.022;13.830;2024-02-23T05:13:44;0.65;;;0.60;;
84231;SDS011;74368;48.022;13.830;2024-02-23T05:16:10;0.10;;;0.10;;
84231;SDS011;74368;48.022;13.830;2024-02-23T05:18:35;0.25;;;0.25;;
84231;SDS011;74368;48.022;13.830;2024-02-23T05:21:00;1.98;;;0.55;;
84231;SDS011;74368;48.022;13.830;2024-02-23T05:23:26;0.85;;;0.70;;
84231;SDS011;74368;48.022;13.830;2024-02-23T05:25:51;1.02;;;0.93;;
84231;SDS011;74368;48.022;13.830;2024-02-23T05:28:16;0.57;;;0.47;;
84231;SDS011;74368;48.022;13.830;2024-02-23T05:30:41;0.85;;;0.85;;
84231;SDS011;74368;48.022;13.830;2024-02-23T05:33:07;1.17;;;0.85;;
84231;SDS011;74368;48.022;13.830;2024-02-23T05:35:32;1.58;;;1.02;;
84231;SDS011;74368;48.022;13.830;2024-02-23T05:37:58;1.80;;;1.50;;
84231;SDS011;74368;48.022;13.830;2024-02-23T05:40:23;1.73;;;1.40;;
84231;SDS011;74368;48.022;13.830;2024-02-23T05:42:49;2.00;;;1.30;;
84231;SDS011;74368;48.022;13.830;2024-02-23T05:45:14;1.13;;;0.82;;
84231;SDS011;74368;48.022;13.830;2024-02-23T05:47:40;0.77;;;0.75;;
84231;SDS011;74368;48.022;13.830;2024-02-23T05:50:07;0.95;;;0.90;;
84231;SDS011;74368;48.022;13.830;2024-02-23T05:52:34;1.42;;;1.05;;
84231;SDS011;74368;48.022;13.830;2024-02-23T05:54:59;3.60;;;1.02;;
84231;SDS011;74368;48.022;13.830;2024-02-23T05:57:28;0.60;;;0.60;;
84231;SDS011;74368;48.022;13.830;2024-02-23T05:59:53;0.93;;;0.88;;
84231;SDS011;74368;48.022;13.830;2024-02-23T06:02:20;0.30;;;0.30;;
84231;SDS011;74368;48.022;13.830;2024-02-23T06:04:46;0.60;;;0.47;;
84231;SDS011;74368;48.022;13.830;2024-02-23T06:07:12;0.52;;;0.47;;
84231;SDS011;74368;48.022;13.830;2024-02-23T06:09:38;0.60;;;0.60;;
84231;SDS011;74368;48.022;13.830;2024-02-23T06:12:04;2.70;;;0.60;;
84231;SDS011;74368;48.022;13.830;2024-02-23T06:14:30;0.80;;;0.70;;
84231;SDS011;74368;48.022;13.830;2024-02-23T06:16:55;0.65;;;0.65;;
84231;SDS011;74368;48.022;13.830;2024-02-23T06:19:21;0.80;;;0.70;;
84231;SDS011;74368;48.022;13.830;2024-02-23T06:21:49;0.63;;;0.63;;
84231;SDS011;74368;48.022;13.830;2024-02-23T06:24:15;0.82;;;0.60;;
84231;SDS011;74368;48.022;13.830;2024-02-23T06:26:41;0.90;;;0.45;;
84231;SDS011;74368;48.022;13.830;2024-02-23T06:29:07;1.02;;;0.77;;
84231;SDS011;74368;48.022;13.830;2024-02-23T06:31:36;0.60;;;0.60;;
84231;SDS011;74368;48.022;13.830;2024-02-23T06:34:01;0.68;;;0.35;;
84231;SDS011;74368;48.022;13.830;2024-02-23T06:36:27;0.57;;;0.57;;
84231;SDS011;74368;48.022;13.830;2024-02-23T06:38:52;0.70;;;0.70;;
84231;SDS011;74368;48.022;13.830;2024-02-23T06:41:17;1.20;;;0.85;;
84231;SDS011;74368;48.022;13.830;2024-02-23T06:43:43;0.80;;;0.55;;
84231;SDS011;74368;48.022;13.830;2024-02-23T06:46:08;1.15;;;0.88;;
84231;SDS011;74368;48.022;13.830;2024-02-23T06:48:34;0.57;;;0.57;;
84231;SDS011;74368;48.022;13.830;2024-02-23T06:51:00;0.75;;;0.70;;
84231;SDS011;74368;48.022;13.830;2024-02-23T06:53:25;1.98;;;1.02;;
84231;SDS011;74368;48.022;13.830;2024-02-23T06:55:51;1.00;;;1.00;;
84231;SDS011;74368;48.022;13.830;2024-02-23T06:58:16;2.67;;;1.10;;
84231;SDS011;74368;48.022;13.830;2024-02-23T07:00:43;2.15;;;1.33;;
84231;SDS011;74368;48.022;13.830;2024-02-23T07:03:08;2.70;;;1.60;;
84231;SDS011;74368;48.022;13.830;2024-02-23T07:05:34;1.77;;;1.10;;
84231;SDS011;74368;48.022;13.830;2024-02-23T07:08:00;2.53;;;0.90;;
84231;SDS011;74368;48.022;13.830;2024-02-23T07:10:26;1.48;;;1.10;;
84231;SDS011;74368;48.022;13.830;2024-02-23T07:12:51;1.45;;;1.00;;
84231;SDS011;74368;48.022;13.830;2024-02-23T07:15:20;0.93;;;0.85;;
84231;SDS011;74368;48.022;13.830;2024-02-23T07:17:46;1.33;;;1.20;;
84231;SDS011;74368;48.022;13.830;2024-02-23T07:20:12;0.75;;;0.75;;
84231;SDS011;74368;48.022;13.830;2024-02-23T07:22:37;1.23;;;0.98;;
84231;SDS011;74368;48.022;13.830;2024-02-23T07:25:03;0.82;;;0.82;;
84231;SDS011;74368;48.022;13.830;2024-02-23T07:27:30;1.65;;;1.13;;
84231;SDS011;74368;48.022;13.830;2024-02-23T07:29:56;1.48;;;1.30;;
84231;SDS011;74368;48.022;13.830;2024-02-23T07:32:21;1.00;;;1.00;;
84231;SDS011;74368;48.022;13.830;2024-02-23T07:34:46;0.70;;;0.70;;
84231;SDS011;74368;48.022;13.830;2024-02-23T07:37:12;0.77;;;0.77;;
84231;SDS011;74368;48.022;13.830;2024-02-23T07:39:38;0.98;;;0.88;;
84231;SDS011;74368;48.022;13.830;2024-02-23T07:42:03;1.00;;;0.82;;
84231;SDS011;74368;48.022;13.830;2024-02-23T07:44:28;0.95;;;0.90;;
84231;SDS011;74368;48.022;13.830;2024-02-23T07:46:54;1.13;;;1.02;;
84231;SDS011;74368;48.022;13.830;2024-02-23T07:49:20;1.58;;;1.25;;
84231;SDS011;74368;48.022;13.830;2024-02-23T07:51:47;1.30;;;1.13;;
84231;SDS011;74368;48.022;13.830;2024-02-23T07:54:12;2.20;;;1.42;;
84231;SDS011;74368;48.022;13.830;2024-02-23T07:56:37;1.83;;;1.40;;
84231;SDS011;74368;48.022;13.830;2024-02-23T07:59:03;1.85;;;1.30;;
84231;SDS011;74368;48.022;13.830;2024-02-23T08:01:28;2.00;;;1.50;;
84231;SDS011;74368;48.022;13.830;2024-02-23T08:03:53;3.20;;;2.20;;
84231;SDS011;74368;48.022;13.830;2024-02-23T08:06:19;4.25;;;2.33;;
84231;SDS011;74368;48.022;13.830;2024-02-23T08:08:44;2.65;;;1.80;;
84231;SDS011;74368;48.022;13.830;2024-02-23T08:11:10;3.35;;;1.98;;
84231;SDS011;74368;48.022;13.830;2024-02-23T08:13:36;4.53;;;3.08;;
84231;SDS011;74368;48.022;13.830;2024-02-23T08:16:01;2.90;;;2.22;;
84231;SDS011;74368;48.022;13.830;2024-02-23T08:18:27;3.30;;;2.67;;
84231;SDS011;74368;48.022;13.830;2024-02-23T08:20:52;5.90;;;3.72;;
84231;SDS011;74368;48.022;13.830;2024-02-23T08:23:18;6.78;;;4.15;;
84231;SDS011;74368;48.022;13.830;2024-02-23T08:25:47;4.00;;;2.92;;
84231;SDS011;74368;48.022;13.830;2024-02-23T08:28:13;4.63;;;2.90;;
84231;SDS011;74368;48.022;13.830;2024-02-23T08:30:38;5.40;;;3.90;;
84231;SDS011;74368;48.022;13.830;2024-02-23T08:33:03;3.10;;;2.10;;
84231;SDS011;74368;48.022;13.830;2024-02-23T08:35:28;2.40;;;1.80;;
84231;SDS011;74368;48.022;13.830;2024-02-23T08:37:54;3.30;;;2.45;;
84231;SDS011;74368;48.022;13.830;2024-02-23T08:40:19;2.67;;;1.73;;
84231;SDS011;74368;48.022;13.830;2024-02-23T08:42:44;3.05;;;2.05;;
84231;SDS011;74368;48.022;13.830;2024-02-23T08:45:11;3.35;;;2.08;;
84231;SDS011;74368;48.022;13.830;2024-02-23T08:47:38;3.65;;;1.73;;
84231;SDS011;74368;48.022;13.830;2024-02-23T08:50:04;6.03;;;3.83;;
84231;SDS011;74368;48.022;13.830;2024-02-23T08:52:29;3.80;;;1.98;;
84231;SDS011;74368;48.022;13.830;2024-02-23T08:54:55;1.77;;;1.33;;
84231;SDS011;74368;48.022;13.830;2024-02-23T08:57:20;1.85;;;1.20;;
84231;SDS011;74368;48.022;13.830;2024-02-23T08:59:47;1.80;;;1.48;;
84231;SDS011;74368;48.022;13.830;2024-02-23T09:02:13;3.25;;;1.80;;
84231;SDS011;74368;48.022;13.830;2024-02-23T09:04:39;2.08;;;1.48;;
84231;SDS011;74368;48.022;13.830;2024-02-23T09:07:04;1.13;;;1.02;;
84231;SDS011;74368;48.022;13.830;2024-02-23T09:09:30;5.88;;;2.75;;
84231;SDS011;74368;48.022;13.830;2024-02-23T09:11:56;3.40;;;1.70;;
84231;SDS011;74368;48.022;13.830;2024-02-23T09:14:21;3.17;;;2.25;;
84231;SDS011;74368;48.022;13.830;2024-02-23T09:16:47;2.40;;;2.00;;
84231;SDS011;74368;48.022;13.830;2024-02-23T09:19:15;2.00;;;1.30;;
84231;SDS011;74368;48.022;13.830;2024-02-23T09:21:41;1.90;;;1.58;;
84231;SDS011;74368;48.022;13.830;2024-02-23T09:24:06;2.55;;;1.60;;
84231;SDS011;74368;48.022;13.830;2024-02-23T09:26:32;1.50;;;1.20;;
84231;SDS011;74368;48.022;13.830;2024-02-23T09:28:57;1.70;;;1.13;;
84231;SDS011;74368;48.022;13.830;2024-02-23T09:31:22;2.10;;;1.23;;
84231;SDS011;74368;48.022;13.830;2024-02-23T09:33:48;2.17;;;1.17;;
84231;SDS011;74368;48.022;13.830;2024-02-23T09:36:16;1.38;;;1.25;;
84231;SDS011;74368;48.022;13.830;2024-02-23T09:38:42;1.95;;;1.35;;
84231;SDS011;74368;48.022;13.830;2024-02-23T09:41:11;2.58;;;1.80;;
84231;SDS011;74368;48.022;13.830;2024-02-23T09:43:42;5.22;;;1.95;;
84231;SDS011;74368;48.022;13.830;2024-02-23T09:46:10;2.17;;;1.38;;
84231;SDS011;74368;48.022;13.830;2024-02-23T09:48:35;2.88;;;1.23;;
84231;SDS011;74368;48.022;13.830;2024-02-23T09:51:02;2.40;;;1.70;;
84231;SDS011;74368;48.022;13.830;2024-02-23T09:53:29;2.00;;;1.00;;
84231;SDS011;74368;48.022;13.830;2024-02-23T09:55:55;3.25;;;2.22;;
84231;SDS011;74368;48.022;13.830;2024-02-23T09:58:24;3.05;;;2.00;;
84231;SDS011;74368;48.022;13.830;2024-02-23T10:00:54;3.85;;;2.53;;
84231;SDS011;74368;48.022;13.830;2024-02-23T10:03:22;5.30;;;2.45;;
84231;SDS011;74368;48.022;13.830;2024-02-23T10:05:51;1.88;;;1.45;;
84231;SDS011;74368;48.022;13.830;2024-02-23T10:08:16;1.65;;;0.68;;
84231;SDS011;74368;48.022;13.830;2024-02-23T10:10:41;0.60;;;0.60;;
84231;SDS011;74368;48.022;13.830;2024-02-23T10:13:06;1.15;;;0.45;;
84231;SDS011;74368;48.022;13.830;2024-02-23T10:15:33;0.82;;;0.52;;
84231;SDS011;74368;48.022;13.830;2024-02-23T10:17:58;0.68;;;0.68;;
84231;SDS011;74368;48.022;13.830;2024-02-23T10:20:23;0.95;;;0.57;;
84231;SDS011;74368;48.022;13.830;2024-02-23T10:22:49;1.55;;;0.40;;
84231;SDS011;74368;48.022;13.830;2024-02-23T10:25:14;1.60;;;1.10;;
84231;SDS011;74368;48.022;13.830;2024-02-23T10:27:40;1.95;;;1.77;;
84231;SDS011;74368;48.022;13.830;2024-02-23T10:30:07;2.75;;;0.63;;
84231;SDS011;74368;48.022;13.830;2024-02-23T10:32:36;1.25;;;0.75;;
84231;SDS011;74368;48.022;13.830;2024-02-23T10:35:03;1.02;;;0.93;;
84231;SDS011;74368;48.022;13.830;2024-02-23T10:37:34;1.17;;;0.70;;
84231;SDS011;74368;48.022;13.830;2024-02-23T10:40:00;1.58;;;0.82;;
84231;SDS011;74368;48.022;13.830;2024-02-23T10:42:27;0.73;;;0.73;;
84231;SDS011;74368;48.022;13.830;2024-02-23T10:44:56;1.05;;;0.85;;
84231;SDS011;74368;48.022;13.830;2024-02-23T10:47:26;0.80;;;0.77;;
84231;SDS011;74368;48.022;13.830;2024-02-23T10:49:51;1.52;;;1.35;;
84231;SDS011;74368;48.022;13.830;2024-02-23T10:52:17;3.53;;;2.75;;
84231;SDS011;74368;48.022;13.830;2024-02-23T10:54:45;3.05;;;1.60;;
84231;SDS011;74368;48.022;13.830;2024-02-23T10:57:11;4.13;;;2.33;;
84231;SDS011;74368;48.022;13.830;2024-02-23T10:59:38;3.65;;;2.08;;
84231;SDS011;74368;48.022;13.830;2024-02-23T11:02:04;2.83;;;1.90;;
84231;SDS011;74368;48.022;13.830;2024-02-23T11:04:31;3.70;;;1.52;;
84231;SDS011;74368;48.022;13.830;2024-02-23T11:06:58;1.80;;;1.30;;
84231;SDS011;74368;48.022;13.830;2024-02-23T11:09:23;1.67;;;1.27;;
84231;SDS011;74368;48.022;13.830;2024-02-23T11:11:53;1.30;;;1.15;;
84231;SDS011;74368;48.022;13.830;2024-02-23T11:14:29;1.55;;;1.17;;
84231;SDS011;74368;48.022;13.830;2024-02-23T11:16:58;1.50;;;0.95;;
84231;SDS011;74368;48.022;13.830;2024-02-23T11:19:31;1.50;;;1.40;;
84231;SDS011;74368;48.022;13.830;2024-02-23T11:22:04;1.58;;;1.13;;
84231;SDS011;74368;48.022;13.830;2024-02-23T11:24:31;1.85;;;1.42;;
84231;SDS011;74368;48.022;13.830;2024-02-23T11:27:00;2.08;;;1.48;;
84231;SDS011;74368;48.022;13.830;2024-02-23T11:31:59;3.78;;;2.05;;
84231;SDS011;74368;48.022;13.830;2024-02-23T11:34:29;4.05;;;2.17;;
84231;SDS011;74368;48.022;13.830;2024-02-23T11:36:55;3.30;;;1.73;;
84231;SDS011;74368;48.022;13.830;2024-02-23T11:39:21;6.45;;;2.30;;
84231;SDS011;74368;48.022;13.830;2024-02-23T11:41:48;2.58;;;1.60;;
84231;SDS011;74368;48.022;13.830;2024-02-23T11:44:17;3.10;;;1.77;;
84231;SDS011;74368;48.022;13.830;2024-02-23T11:46:43;2.75;;;2.00;;
84231;SDS011;74368;48.022;13.830;2024-02-23T11:49:10;1.95;;;1.48;;
84231;SDS011;74368;48.022;13.830;2024-02-23T11:51:35;2.80;;;1.55;;
84231;SDS011;74368;48.022;13.830;2024-02-23T11:54:00;4.75;;;1.50;;
84231;SDS011;74368;48.022;13.830;2024-02-23T11:56:26;3.70;;;1.75;;
84231;SDS011;74368;48.022;13.830;2024-02-23T11:58:53;2.50;;;1.45;;
84231;SDS011;74368;48.022;13.830;2024-02-23T12:01:19;2.53;;;1.80;;
84231;SDS011;74368;48.022;13.830;2024-02-23T12:03:44;2.83;;;1.58;;
84231;SDS011;74368;48.022;13.830;2024-02-23T12:06:10;2.47;;;1.55;;
84231;SDS011;74368;48.022;13.830;2024-02-23T12:08:36;3.63;;;1.90;;
84231;SDS011;74368;48.022;13.830;2024-02-23T12:13:35;4.60;;;1.70;;
84231;SDS011;74368;48.022;13.830;2024-02-23T12:16:01;1.90;;;1.65;;
84231;SDS011;74368;48.022;13.830;2024-02-23T12:18:27;2.22;;;1.60;;
84231;SDS011;74368;48.022;13.830;2024-02-23T12:20:58;5.40;;;2.25;;
84231;SDS011;74368;48.022;13.830;2024-02-23T12:23:26;2.75;;;1.60;;
84231;SDS011;74368;48.022;13.830;2024-02-23T12:25:57;2.10;;;1.60;;
84231;SDS011;74368;48.022;13.830;2024-02-23T12:28:22;1.98;;;1.50;;
84231;SDS011;74368;48.022;13.830;2024-02-23T12:31:01;2.20;;;1.58;;
84231;SDS011;74368;48.022;13.830;2024-02-23T12:33:28;2.38;;;1.40;;
84231;SDS011;74368;48.022;13.830;2024-02-23T12:35:54;1.77;;;1.48;;
84231;SDS011;74368;48.022;13.830;2024-02-23T12:38:21;4.18;;;1.90;;
84231;SDS011;74368;48.022;13.830;2024-02-23T12:40:47;3.22;;;2.00;;
84231;SDS011;74368;48.022;13.830;2024-02-23T12:43:12;2.50;;;1.80;;
84231;SDS011;74368;48.022;13.830;2024-02-23T12:45:37;2.85;;;2.00;;
84231;SDS011;74368;48.022;13.830;2024-02-23T12:48:03;2.72;;;2.13;;
84231;SDS011;74368;48.022;13.830;2024-02-23T12:50:31;4.35;;;2.00;;
84231;SDS011;74368;48.022;13.830;2024-02-23T12:52:57;3.72;;;2.67;;
84231;SDS011;74368;48.022;13.830;2024-02-23T12:55:23;3.40;;;2.13;;
84231;SDS011;74368;48.022;13.830;2024-02-23T12:57:48;5.93;;;2.90;;
84231;SDS011;74368;48.022;13.830;2024-02-23T13:00:13;4.85;;;2.40;;
84231;SDS011;74368;48.022;13.830;2024-02-23T13:02:39;4.38;;;2.25;;
84231;SDS011;74368;48.022;13.830;2024-02-23T13:05:05;3.25;;;2.10;;
84231;SDS011;74368;48.022;13.830;2024-02-23T13:07:31;3.58;;;2.40;;
84231;SDS011;74368;48.022;13.830;2024-02-23T13:09:57;2.50;;;1.58;;
84231;SDS011;74368;48.022;13.830;2024-02-23T13:12:24;2.25;;;1.52;;
84231;SDS011;74368;48.022;13.830;2024-02-23T13:14:50;2.22;;;1.60;;
84231;SDS011;74368;48.022;13.830;2024-02-23T13:17:18;2.67;;;2.00;;
84231;SDS011;74368;48.022;13.830;2024-02-23T13:19:44;5.85;;;3.30;;
84231;SDS011;74368;48.022;13.830;2024-02-23T13:22:09;4.43;;;2.50;;
84231;SDS011;74368;48.022;13.830;2024-02-23T13:24:34;5.80;;;2.58;;
84231;SDS011;74368;48.022;13.830;2024-02-23T13:26:59;4.07;;;2.50;;
84231;SDS011;74368;48.022;13.830;2024-02-23T13:29:25;5.47;;;2.97;;
84231;SDS011;74368;48.022;13.830;2024-02-23T13:31:50;6.15;;;3.13;;
84231;SDS011;74368;48.022;13.830;2024-02-23T13:34:16;5.78;;;3.15;;
84231;SDS011;74368;48.022;13.830;2024-02-23T13:36:42;5.35;;;2.85;;
84231;SDS011;74368;48.022;13.830;2024-02-23T13:39:08;5.63;;;3.53;;
84231;SDS011;74368;48.022;13.830;2024-02-23T13:41:34;4.45;;;3.30;;
84231;SDS011;74368;48.022;13.830;2024-02-23T13:43:59;4.35;;;2.90;;
84231;SDS011;74368;48.022;13.830;2024-02-23T13:46:25;4.28;;;3.20;;
84231;SDS011;74368;48.022;13.830;2024-02-23T13:49:01;6.65;;;2.95;;
84231;SDS011;74368;48.022;13.830;2024-02-23T13:51:29;4.68;;;2.80;;
84231;SDS011;74368;48.022;13.830;2024-02-23T13:53:54;3.53;;;2.50;;
84231;SDS011;74368;48.022;13.830;2024-02-23T13:56:20;4.60;;;2.30;;
84231;SDS011;74368;48.022;13.830;2024-02-23T13:58:45;6.43;;;2.70;;
84231;SDS011;74368;48.022;13.830;2024-02-23T14:01:11;2.83;;;2.33;;
84231;SDS011;74368;48.022;13.830;2024-02-23T14:03:36;3.67;;;2.60;;
84231;SDS011;74368;48.022;13.830;2024-02-23T14:06:01;3.72;;;2.60;;
84231;SDS011;74368;48.022;13.830;2024-02-23T14:08:27;3.55;;;2.80;;
84231;SDS011;74368;48.022;13.830;2024-02-23T14:10:52;3.38;;;2.65;;
84231;SDS011;74368;48.022;13.830;2024-02-23T14:13:18;4.18;;;2.53;;
84231;SDS011;74368;48.022;13.830;2024-02-23T14:15:44;4.80;;;2.20;;
84231;SDS011;74368;48.022;13.830;2024-02-23T14:18:10;3.83;;;2.53;;
84231;SDS011;74368;48.022;13.830;2024-02-23T14:20:35;3.88;;;2.40;;
84231;SDS011;74368;48.022;13.830;2024-02-23T14:23:00;7.30;;;2.63;;
84231;SDS011;74368;48.022;13.830;2024-02-23T14:25:26;4.95;;;3.33;;
84231;SDS011;74368;48.022;13.830;2024-02-23T14:27:51;3.45;;;2.70;;
84231;SDS011;74368;48.022;13.830;2024-02-23T14:30:16;3.25;;;2.13;;